Jackson, NH (03846)

7:19 AM EST on February 12, 2016 (GMT -0500)
Dana Place | | Change Station
CLOSE
Current Station
Personal Weather Station
Location: JACKSON, NH
Elevation: 1190 ft
Nearby Weather Stations
Active Advisory: Wind Chill Watch

Elev 1190 ft 44.20 °N, 71.23 °W | Updated 5 seconds ago

Clear
Clear
0.8 °F
Feels Like 1 °F
N
0.0
Wind Variable Wind from NNE
Gusts 1.0 mph

Today
High -- | Low -- °F
--% Chance of Precip.
Yesterday
High -- | Low -- °F
Precip. -- in
Pressure 30.09 in
Visibility 10.0 miles
Clouds Clear
Windchill 1 °F
Dew Point -8 °F
Humidity 66%
Rainfall 0.00 in
Snow Depth Not available.
6:49 AM 5:09 PM
Waxing Crescent, 20% visible
METAR KIZG 121154Z AUTO 14003KT 10SM CLR M17/M25 A3005 RMK AO2 SLP187 T11721250 11156 21189 52022
Pressure 30.09 in
Visibility 10.0 miles
Clouds Clear
Windchill 1 °F
Dew Point -8 °F
Humidity 66%
Rainfall 0.00 in
Snow Depth Not available.
6:49 AM 5:09 PM
Waxing Crescent, 20% visible
METAR KIZG 121154Z AUTO 14003KT 10SM CLR M17/M25 A3005 RMK AO2 SLP187 T11721250 11156 21189 52022

10-Day Weather Forecast

Almanac

Astronomy

Feb. 12, 2016 Rise Set
Actual Time
Civil Twilight
Nautical Twilight
Astronomical Twilight
Moon
Length of Visible Light
Length of Day
Tomorrow will be .
, % of the Moon is Illuminated

Today's Extremes

State Highs State Lows

Community

WunderPhotos

Upload Photos

1,892,295 photos uploaded!

WunderBlog® & News

Nearby

Air Quality

  Air Quality AQ Index Pollutant
Not available.

Snow Depth

Station Depth Elevation

Earthquake Activity

City Distance Mag. Time & Date
Minimum magnitude displayed is 2.5.

Coastal Water Temperatures

Place Temperature

Stations

Nearby Weather Stations

Station Location Temp. Windchill Dew Point Humidity Wind Precip. Elev Updated Type
                   

Watches & Warnings

Wind Chill Watch
Issued: 3:52 AM EST Feb. 12, 2016 – National Weather Service

... Wind chill watch remains in effect from Saturday evening
through Sunday morning...

* hazard types... dangerous wind chill readings.

* Wind chill... as low as 36 below due to temperatures 21 below to
zero... and winds northwest 10 to 20 mph with gusts up to 30 mph.

* Timing... Saturday night and Sunday morning.

* Impacts... frostbite and hypothermia if unprotected from the
cold.

* Winds... northwest 10 to 20 mph with gusts up to 30 mph.

* Temperatures... 21 below to zero.

Precautionary/preparedness actions...

A wind chill watch means the there is the potential for a
combination of very cold air and strong winds to create
dangerously low wind chill values. Monitor the latest forecasts
and warnings for updates on this situation.